Time;durP1;ratioP1;P1;durP2;ratioP2;P2;SDS_P1;SDS_P2;PMS_P1;PMS_P2;Temp;Humidity;BMP_temperature;BMP_pressure;BME280_temperature;BME280_humidity;BME280_pressure;Samples;Min_cycle;Max_cycle;Signal;HPM_P1;HPM_P2
2023/03/10 00:02:05;;;;;;;20.17;10.55;;;;;;;;;;5031175;28;20046;-65
2023/03/10 00:04:32;;;;;;;7.47;6.05;;;;;;;;;;5030913;28;20050;-65
2023/03/10 00:06:58;;;;;;;6.65;5.07;;;;;;;;;;5030962;28;20045;-65
2023/03/10 00:09:24;;;;;;;6.13;4.85;;;;;;;;;;5032585;28;20055;-65
2023/03/10 00:11:51;;;;;;;7.03;5.60;;;;;;;;;;5033544;28;20045;-65
2023/03/10 00:14:17;;;;;;;12.75;6.75;;;;;;;;;;5031147;28;20054;-65
2023/03/10 00:16:44;;;;;;;6.97;6.22;;;;;;;;;;5031235;28;20052;-65
2023/03/10 00:19:10;;;;;;;11.15;7.80;;;;;;;;;;5031874;28;20167;-64
2023/03/10 00:21:36;;;;;;;13.25;9.18;;;;;;;;;;5035208;28;20042;-64
2023/03/10 00:24:03;;;;;;;18.35;9.70;;;;;;;;;;5044690;28;20409;-65
2023/03/10 00:26:29;;;;;;;24.35;11.60;;;;;;;;;;5035023;28;20072;-64
2023/03/10 00:28:56;;;;;;;21.92;13.38;;;;;;;;;;5034697;28;20144;-64
2023/03/10 00:31:23;;;;;;;11.05;9.25;;;;;;;;;;5032991;28;20133;-64
2023/03/10 00:33:51;;;;;;;20.38;12.02;;;;;;;;;;5034789;28;20049;-64
2023/03/10 00:36:21;;;;;;;23.63;12.50;;;;;;;;;;5034728;28;20046;-64
2023/03/10 00:38:48;;;;;;;59.85;15.85;;;;;;;;;;5034692;28;20669;-64
2023/03/10 00:41:15;;;;;;;25.08;13.15;;;;;;;;;;5035446;28;20473;-65
2023/03/10 00:43:42;;;;;;;19.90;12.93;;;;;;;;;;5054732;28;20497;-65
2023/03/10 00:46:09;;;;;;;14.85;10.93;;;;;;;;;;5055100;28;20055;-66
2023/03/10 00:48:35;;;;;;;13.48;10.20;;;;;;;;;;5055033;28;20045;-65
2023/03/10 00:51:03;;;;;;;44.83;15.05;;;;;;;;;;5050287;28;20073;-66
2023/03/10 00:53:29;;;;;;;17.23;11.70;;;;;;;;;;5042406;28;20489;-66
2023/03/10 00:55:57;;;;;;;23.20;12.95;;;;;;;;;;5047131;28;20073;-66
2023/03/10 00:58:24;;;;;;;15.48;10.55;;;;;;;;;;5038716;28;20083;-66
2023/03/10 01:00:50;;;;;;;16.80;10.25;;;;;;;;;;5053909;28;20524;-66
2023/03/10 01:03:16;;;;;;;12.52;9.05;;;;;;;;;;5043904;28;20053;-66
2023/03/10 01:05:44;;;;;;;18.60;10.07;;;;;;;;;;5051250;28;20136;-66
2023/03/10 01:08:10;;;;;;;17.93;10.33;;;;;;;;;;5054800;28;20048;-66
2023/03/10 01:10:36;;;;;;;26.40;11.70;;;;;;;;;;5039954;28;20306;-66
2023/03/10 01:13:03;;;;;;;17.60;10.43;;;;;;;;;;5054773;28;20405;-66
2023/03/10 01:15:29;;;;;;;18.02;11.13;;;;;;;;;;5054562;28;20083;-66
2023/03/10 01:17:55;;;;;;;16.92;11.38;;;;;;;;;;5054346;28;20047;-66
2023/03/10 01:20:22;;;;;;;15.93;11.05;;;;;;;;;;5054833;28;20136;-66
2023/03/10 01:22:48;;;;;;;14.15;10.15;;;;;;;;;;5054216;28;20049;-66
2023/03/10 01:25:15;;;;;;;15.20;11.38;;;;;;;;;;5054227;28;20449;-66
2023/03/10 01:27:42;;;;;;;14.70;10.35;;;;;;;;;;5054399;28;20076;-66
2023/03/10 01:30:08;;;;;;;12.07;10.40;;;;;;;;;;5054176;28;20123;-66
2023/03/10 01:32:36;;;;;;;14.70;10.70;;;;;;;;;;5053328;28;20052;-66
2023/03/10 01:35:03;;;;;;;9.52;8.52;;;;;;;;;;5054094;28;20052;-66
2023/03/10 01:37:30;;;;;;;9.60;8.60;;;;;;;;;;5054298;28;20127;-66
2023/03/10 01:39:56;;;;;;;10.88;9.75;;;;;;;;;;5054058;28;20316;-66
2023/03/10 01:42:23;;;;;;;9.95;8.95;;;;;;;;;;5053943;28;20493;-66
2023/03/10 01:45:08;;;;;;;10.32;9.32;;;;;;;;;;5053808;28;20501;-66
2023/03/10 01:47:34;;;;;;;10.25;8.98;;;;;;;;;;5053881;28;20049;-66
2023/03/10 01:50:02;;;;;;;10.15;9.15;;;;;;;;;;5053609;28;20489;-66
2023/03/10 01:52:30;;;;;;;11.00;9.88;;;;;;;;;;5053573;28;20084;-66
2023/03/10 01:55:03;;;;;;;11.13;9.98;;;;;;;;;;5053940;28;20045;-66
2023/03/10 01:57:32;;;;;;;10.93;9.82;;;;;;;;;;5053794;28;20081;-66
2023/03/10 01:59:59;;;;;;;11.95;10.65;;;;;;;;;;5053663;28;20078;-66
2023/03/10 02:02:25;;;;;;;10.98;9.88;;;;;;;;;;5053593;28;20115;-66
2023/03/10 02:04:52;;;;;;;10.52;9.05;;;;;;;;;;5053801;28;20076;-66
2023/03/10 02:07:21;;;;;;;8.87;8.07;;;;;;;;;;5054308;28;20123;-65
2023/03/10 02:09:48;;;;;;;9.63;8.73;;;;;;;;;;5053508;28;20056;-66
2023/03/10 02:12:15;;;;;;;8.65;7.85;;;;;;;;;;5053289;28;20489;-66
2023/03/10 02:14:43;;;;;;;8.57;7.70;;;;;;;;;;5053322;28;20136;-66
2023/03/10 02:17:12;;;;;;;9.07;8.25;;;;;;;;;;5053460;28;20087;-66
2023/03/10 02:19:57;;;;;;;11.02;9.43;;;;;;;;;;5053619;28;20420;-66
2023/03/10 02:22:24;;;;;;;10.65;9.00;;;;;;;;;;5053477;28;20055;-66
2023/03/10 02:24:56;;;;;;;7.00;6.30;;;;;;;;;;5053240;28;20064;-66
2023/03/10 02:27:24;;;;;;;7.60;6.57;;;;;;;;;;5046016;28;20053;-66
2023/03/10 02:29:53;;;;;;;5.22;4.72;;;;;;;;;;5053380;28;20040;-66
2023/03/10 02:32:26;;;;;;;5.88;5.00;;;;;;;;;;5053174;28;20051;-66
2023/03/10 02:34:53;;;;;;;5.97;5.32;;;;;;;;;;5052972;28;20049;-66
2023/03/10 02:37:21;;;;;;;6.80;5.63;;;;;;;;;;5052935;28;20055;-66
2023/03/10 02:39:48;;;;;;;5.28;4.72;;;;;;;;;;5052910;28;20124;-66
2023/03/10 02:42:14;;;;;;;6.20;5.28;;;;;;;;;;5052746;28;20389;-66
2023/03/10 02:44:41;;;;;;;7.00;5.10;;;;;;;;;;5052867;28;20045;-66
2023/03/10 02:47:08;;;;;;;6.80;4.68;;;;;;;;;;5052950;28;20053;-66
2023/03/10 02:49:35;;;;;;;6.15;5.10;;;;;;;;;;5038762;28;20045;-66
2023/03/10 02:52:03;;;;;;;6.72;5.32;;;;;;;;;;5052441;28;20411;-66
2023/03/10 02:54:30;;;;;;;7.93;6.20;;;;;;;;;;5052547;28;20045;-66
2023/03/10 02:56:56;;;;;;;8.02;6.30;;;;;;;;;;5052515;28;20055;-66
2023/03/10 02:59:22;;;;;;;8.63;6.38;;;;;;;;;;5052816;28;20052;-66
2023/03/10 03:01:49;;;;;;;6.57;5.93;;;;;;;;;;5052565;28;20052;-66
2023/03/10 03:04:15;;;;;;;6.38;5.70;;;;;;;;;;5052603;28;20053;-66
2023/03/10 03:06:42;;;;;;;7.25;6.45;;;;;;;;;;5052386;28;20041;-66
2023/03/10 03:09:08;;;;;;;7.13;6.43;;;;;;;;;;5052510;28;20045;-66
2023/03/10 03:11:34;;;;;;;7.05;6.35;;;;;;;;;;5052343;28;20051;-66
2023/03/10 03:14:01;;;;;;;6.97;6.28;;;;;;;;;;5052402;28;20052;-66
2023/03/10 03:16:27;;;;;;;8.07;7.18;;;;;;;;;;5052342;28;20044;-66
2023/03/10 03:18:54;;;;;;;7.38;6.55;;;;;;;;;;5052373;28;20049;-66
2023/03/10 03:21:20;;;;;;;6.57;5.85;;;;;;;;;;5052236;28;20075;-66
2023/03/10 03:23:47;;;;;;;6.07;5.53;;;;;;;;;;5051919;28;20527;-66
2023/03/10 03:26:14;;;;;;;8.48;6.95;;;;;;;;;;5052217;28;20061;-66
2023/03/10 03:28:41;;;;;;;6.38;5.78;;;;;;;;;;5052199;28;20059;-66
2023/03/10 03:31:12;;;;;;;5.80;5.30;;;;;;;;;;5052032;28;20055;-66
2023/03/10 03:33:38;;;;;;;5.63;5.13;;;;;;;;;;5051861;28;20049;-66
2023/03/10 03:36:05;;;;;;;6.40;5.90;;;;;;;;;;5052111;28;20398;-66
2023/03/10 03:38:31;;;;;;;6.30;5.70;;;;;;;;;;5051869;28;20053;-66
2023/03/10 03:40:57;;;;;;;6.22;5.63;;;;;;;;;;5051921;28;20040;-66
2023/03/10 03:43:26;;;;;;;6.68;6.07;;;;;;;;;;5052052;28;20041;-66
2023/03/10 03:45:52;;;;;;;6.78;6.07;;;;;;;;;;5050847;28;20071;-66
2023/03/10 03:48:19;;;;;;;6.32;5.72;;;;;;;;;;5051771;28;20049;-66
2023/03/10 03:50:47;;;;;;;5.20;4.70;;;;;;;;;;5051323;28;20534;-66
2023/03/10 03:53:14;;;;;;;5.85;5.28;;;;;;;;;;5051691;28;20041;-66
2023/03/10 03:55:40;;;;;;;5.13;4.65;;;;;;;;;;5051468;28;20052;-66
2023/03/10 03:58:07;;;;;;;4.50;4.10;;;;;;;;;;5051643;28;20045;-66
2023/03/10 04:00:34;;;;;;;3.92;3.63;;;;;;;;;;5051461;28;20059;-66
2023/03/10 04:03:01;;;;;;;4.93;4.43;;;;;;;;;;5051877;28;20132;-66
2023/03/10 04:05:27;;;;;;;4.32;3.92;;;;;;;;;;5051563;28;20053;-66
2023/03/10 04:07:53;;;;;;;4.65;4.25;;;;;;;;;;5051638;28;20049;-66
2023/03/10 04:10:22;;;;;;;4.03;3.72;;;;;;;;;;5051293;28;20059;-66
2023/03/10 04:12:48;;;;;;;4.18;3.88;;;;;;;;;;5051206;28;20501;-66
2023/03/10 04:15:15;;;;;;;3.95;3.65;;;;;;;;;;5051382;28;20051;-66
2023/03/10 04:17:41;;;;;;;4.35;4.05;;;;;;;;;;5051511;28;20140;-66
2023/03/10 04:20:08;;;;;;;4.28;3.88;;;;;;;;;;5051501;28;20052;-65
2023/03/10 04:22:35;;;;;;;4.70;4.30;;;;;;;;;;5051360;28;20053;-66
2023/03/10 04:25:02;;;;;;;4.13;3.72;;;;;;;;;;5051491;28;20088;-65
2023/03/10 04:27:28;;;;;;;3.47;3.28;;;;;;;;;;5051691;28;20063;-66
2023/03/10 04:29:55;;;;;;;3.97;3.67;;;;;;;;;;5051296;28;20049;-66
2023/03/10 04:32:22;;;;;;;3.95;3.65;;;;;;;;;;5051151;28;20132;-65
2023/03/10 04:34:48;;;;;;;3.95;3.65;;;;;;;;;;5051472;28;20053;-66
2023/03/10 04:37:15;;;;;;;5.18;4.68;;;;;;;;;;5051312;28;20041;-65
2023/03/10 04:39:41;;;;;;;4.18;3.78;;;;;;;;;;5051158;28;20045;-65
2023/03/10 04:42:08;;;;;;;4.45;4.05;;;;;;;;;;5051434;28;20373;-65
2023/03/10 04:44:34;;;;;;;3.42;3.13;;;;;;;;;;5051121;28;20051;-65
2023/03/10 04:47:01;;;;;;;4.65;4.25;;;;;;;;;;5051629;28;20053;-65
2023/03/10 04:49:27;;;;;;;4.00;3.70;;;;;;;;;;5051337;28;20084;-66
2023/03/10 04:51:54;;;;;;;4.45;4.05;;;;;;;;;;5050915;28;20136;-65
2023/03/10 04:54:21;;;;;;;4.20;3.90;;;;;;;;;;5051350;28;20049;-65
2023/03/10 04:56:47;;;;;;;3.83;3.53;;;;;;;;;;5051170;28;20045;-65
2023/03/10 04:59:13;;;;;;;4.00;3.67;;;;;;;;;;5050928;28;20133;-65
2023/03/10 05:01:40;;;;;;;4.20;3.85;;;;;;;;;;5050846;28;20132;-66
2023/03/10 05:04:06;;;;;;;4.30;3.90;;;;;;;;;;5050920;28;20057;-65
2023/03/10 05:06:33;;;;;;;3.50;3.30;;;;;;;;;;5054179;28;20049;-66
2023/03/10 05:09:02;;;;;;;3.25;3.05;;;;;;;;;;5054759;28;20148;-66
2023/03/10 05:11:28;;;;;;;3.72;3.42;;;;;;;;;;5054440;28;20140;-66
2023/03/10 05:13:55;;;;;;;2.85;2.65;;;;;;;;;;5054791;28;20404;-66
2023/03/10 05:16:21;;;;;;;3.78;3.47;;;;;;;;;;5054645;28;20055;-65
2023/03/10 05:18:48;;;;;;;4.15;3.75;;;;;;;;;;5054483;28;20480;-65
2023/03/10 05:21:15;;;;;;;4.07;3.78;;;;;;;;;;5054379;28;20132;-65
2023/03/10 05:23:41;;;;;;;4.68;4.28;;;;;;;;;;5054506;28;20053;-65
2023/03/10 05:26:09;;;;;;;4.85;4.43;;;;;;;;;;5054253;28;20580;-65
2023/03/10 05:28:35;;;;;;;4.82;4.40;;;;;;;;;;5054476;28;20049;-65
2023/03/10 05:31:07;;;;;;;5.00;4.60;;;;;;;;;;5054179;28;20048;-65
2023/03/10 05:33:33;;;;;;;5.45;4.95;;;;;;;;;;5054054;28;20094;-66
2023/03/10 05:36:02;;;;;;;5.43;4.93;;;;;;;;;;5054311;28;20053;-65
2023/03/10 05:38:28;;;;;;;4.60;4.20;;;;;;;;;;5054418;28;20465;-65
2023/03/10 05:40:55;;;;;;;5.10;4.60;;;;;;;;;;5053904;28;20044;-66
2023/03/10 05:43:21;;;;;;;4.78;4.38;;;;;;;;;;5054234;28;20135;-66
2023/03/10 05:45:57;;;;;;;4.65;4.25;;;;;;;;;;5054197;28;20140;-66
2023/03/10 05:48:24;;;;;;;4.85;4.35;;;;;;;;;;5054043;28;20055;-66
2023/03/10 05:51:01;;;;;;;4.32;3.92;;;;;;;;;;5053597;28;20769;-66
2023/03/10 05:53:28;;;;;;;4.82;4.05;;;;;;;;;;5053890;28;20516;-66
2023/03/10 05:55:55;;;;;;;4.07;3.67;;;;;;;;;;5054000;28;20106;-66
2023/03/10 05:58:22;;;;;;;3.78;3.47;;;;;;;;;;5053676;28;20501;-66
2023/03/10 06:00:49;;;;;;;3.00;2.80;;;;;;;;;;5052708;28;20132;-66
2023/03/10 06:03:15;;;;;;;2.67;2.47;;;;;;;;;;5053861;28;20063;-66
2023/03/10 06:05:42;;;;;;;2.72;2.53;;;;;;;;;;5053843;28;20419;-66
2023/03/10 06:08:09;;;;;;;2.63;2.42;;;;;;;;;;5053687;28;20049;-66
2023/03/10 06:10:35;;;;;;;3.33;3.00;;;;;;;;;;5053450;28;20439;-66
2023/03/10 06:13:01;;;;;;;3.55;3.15;;;;;;;;;;5053774;28;20057;-66
2023/03/10 06:15:28;;;;;;;2.88;2.67;;;;;;;;;;5053689;28;20075;-66
2023/03/10 06:17:54;;;;;;;3.40;3.10;;;;;;;;;;5052831;28;20428;-66
2023/03/10 06:20:21;;;;;;;3.47;3.17;;;;;;;;;;5053369;28;20049;-66
2023/03/10 06:22:49;;;;;;;3.22;2.90;;;;;;;;;;5053542;28;20052;-66
2023/03/10 06:25:15;;;;;;;2.95;2.75;;;;;;;;;;5053125;28;20524;-66
2023/03/10 06:27:41;;;;;;;2.90;2.67;;;;;;;;;;5053499;28;20136;-66
2023/03/10 06:30:08;;;;;;;2.70;2.50;;;;;;;;;;5053024;28;20052;-66
2023/03/10 06:32:35;;;;;;;2.00;1.88;;;;;;;;;;5053297;28;20044;-66
2023/03/10 06:35:01;;;;;;;1.92;1.83;;;;;;;;;;5053033;28;20048;-66
2023/03/10 06:37:28;;;;;;;1.98;1.88;;;;;;;;;;5052959;28;20128;-66
2023/03/10 06:39:54;;;;;;;1.58;1.48;;;;;;;;;;5052887;28;20548;-66
2023/03/10 06:42:20;;;;;;;1.50;1.40;;;;;;;;;;5053220;28;20060;-66
2023/03/10 06:44:47;;;;;;;1.48;1.38;;;;;;;;;;5052983;28;20049;-66
2023/03/10 06:47:14;;;;;;;2.17;1.48;;;;;;;;;;5052862;28;20136;-66
2023/03/10 06:49:41;;;;;;;1.25;1.15;;;;;;;;;;5053337;28;20053;-66
2023/03/10 06:52:07;;;;;;;1.70;1.60;;;;;;;;;;5052525;28;20078;-66
2023/03/10 06:54:33;;;;;;;1.17;1.17;;;;;;;;;;5052865;28;20044;-66
2023/03/10 06:57:00;;;;;;;0.80;0.80;;;;;;;;;;5052789;28;20068;-66
2023/03/10 06:59:26;;;;;;;1.20;1.05;;;;;;;;;;5052513;28;20045;-66
2023/03/10 07:01:52;;;;;;;1.02;1.02;;;;;;;;;;5052435;28;20052;-66
2023/03/10 07:04:19;;;;;;;0.95;0.95;;;;;;;;;;5052405;28;20049;-66
2023/03/10 07:06:45;;;;;;;0.68;0.68;;;;;;;;;;5052440;28;20049;-66
2023/03/10 07:09:11;;;;;;;0.70;0.70;;;;;;;;;;5052495;28;20499;-66
2023/03/10 07:11:38;;;;;;;0.50;0.50;;;;;;;;;;5052300;28;20481;-66
2023/03/10 07:14:04;;;;;;;0.40;0.40;;;;;;;;;;5052297;28;20060;-66
2023/03/10 07:16:30;;;;;;;0.60;0.60;;;;;;;;;;5052229;28;20064;-66
2023/03/10 07:18:57;;;;;;;0.57;0.57;;;;;;;;;;5052179;28;20074;-66
2023/03/10 07:21:23;;;;;;;0.60;0.60;;;;;;;;;;5052043;28;20390;-66
2023/03/10 07:23:50;;;;;;;0.60;0.60;;;;;;;;;;5052143;28;20044;-66
2023/03/10 07:26:17;;;;;;;0.70;0.70;;;;;;;;;;5052300;28;20060;-66
2023/03/10 07:28:44;;;;;;;0.77;0.77;;;;;;;;;;5051219;28;20049;-66
2023/03/10 07:31:11;;;;;;;1.13;0.88;;;;;;;;;;5052105;28;20144;-66
2023/03/10 07:33:38;;;;;;;0.82;0.70;;;;;;;;;;5052141;28;20043;-66
2023/03/10 07:36:06;;;;;;;0.60;0.60;;;;;;;;;;5051824;28;20049;-65
2023/03/10 07:38:33;;;;;;;1.33;1.00;;;;;;;;;;5052123;28;20076;-66
2023/03/10 07:40:59;;;;;;;0.70;0.70;;;;;;;;;;5051892;28;20124;-65
2023/03/10 07:43:27;;;;;;;0.80;0.80;;;;;;;;;;5032768;28;20053;-66
2023/03/10 07:45:54;;;;;;;1.27;1.13;;;;;;;;;;5032028;28;20058;-65
2023/03/10 07:48:20;;;;;;;2.75;2.28;;;;;;;;;;5031670;28;20057;-65
2023/03/10 07:50:53;;;;;;;7.35;4.10;;;;;;;;;;5031495;28;20057;-65
2023/03/10 07:53:20;;;;;;;12.02;5.60;;;;;;;;;;5031805;28;20412;-65
2023/03/10 07:55:46;;;;;;;10.25;5.05;;;;;;;;;;5032712;28;20528;-65
2023/03/10 07:58:12;;;;;;;12.07;6.10;;;;;;;;;;5036568;28;20041;-65
2023/03/10 08:00:39;;;;;;;10.35;4.68;;;;;;;;;;5048707;28;20055;-65
2023/03/10 08:03:05;;;;;;;8.70;4.68;;;;;;;;;;5030930;28;20053;-66
2023/03/10 08:05:32;;;;;;;15.00;5.43;;;;;;;;;;5044020;28;20053;-66
2023/03/10 08:07:58;;;;;;;8.85;3.58;;;;;;;;;;5051887;28;20053;-65
2023/03/10 08:10:24;;;;;;;5.32;2.60;;;;;;;;;;5051520;28;20053;-63
2023/03/10 08:12:52;;;;;;;5.25;2.80;;;;;;;;;;5051327;28;20048;-65
2023/03/10 08:15:19;;;;;;;;;;;;;;;;;;5049191;28;20045;-65
2023/03/10 08:17:45;;;;;;;5.50;2.88;;;;;;;;;;5031436;28;19925;-65
2023/03/10 08:20:11;;;;;;;5.03;2.33;;;;;;;;;;5033187;28;20049;-65
2023/03/10 08:22:38;;;;;;;4.60;2.60;;;;;;;;;;5037077;28;20057;-65
2023/03/10 08:25:05;;;;;;;5.03;2.75;;;;;;;;;;5051377;28;20059;-65
2023/03/10 08:27:31;;;;;;;4.40;2.47;;;;;;;;;;5051575;28;20132;-65
2023/03/10 08:29:58;;;;;;;2.03;1.60;;;;;;;;;;5048595;28;20401;-65
2023/03/10 08:32:24;;;;;;;1.92;1.40;;;;;;;;;;5039408;28;20061;-65
2023/03/10 08:34:50;;;;;;;6.80;2.50;;;;;;;;;;5050603;28;20053;-65
2023/03/10 08:37:17;;;;;;;1.50;1.35;;;;;;;;;;5047323;28;20552;-65
2023/03/10 08:39:45;;;;;;;1.40;1.13;;;;;;;;;;5049765;28;20119;-65
2023/03/10 08:42:12;;;;;;;1.38;1.20;;;;;;;;;;5049688;28;20045;-65
2023/03/10 08:44:38;;;;;;;2.70;1.83;;;;;;;;;;5054864;28;20056;-65
2023/03/10 08:47:06;;;;;;;1.30;1.20;;;;;;;;;;5054425;28;20056;-65
2023/03/10 08:49:32;;;;;;;5.03;3.80;;;;;;;;;;5055178;28;20057;-65
2023/03/10 08:51:59;;;;;;;4.18;3.42;;;;;;;;;;5054846;28;20560;-65
2023/03/10 08:54:25;;;;;;;3.30;2.63;;;;;;;;;;5054941;28;20048;-65
2023/03/10 08:56:52;;;;;;;2.30;1.70;;;;;;;;;;5055114;28;20049;-65
2023/03/10 08:59:18;;;;;;;2.00;1.20;;;;;;;;;;5043558;28;20055;-65
2023/03/10 09:01:45;;;;;;;1.23;1.20;;;;;;;;;;5053382;28;20481;-65
2023/03/10 09:04:12;;;;;;;1.63;0.77;;;;;;;;;;5053595;28;20040;-65
2023/03/10 09:06:38;;;;;;;1.50;1.40;;;;;;;;;;5054093;28;20071;-65
2023/03/10 09:09:05;;;;;;;1.48;1.38;;;;;;;;;;5054092;28;20443;-66
2023/03/10 09:11:33;;;;;;;1.70;0.98;;;;;;;;;;5054000;28;20485;-65
2023/03/10 09:14:03;;;;;;;0.88;0.88;;;;;;;;;;5054207;28;20053;-66
2023/03/10 09:16:30;;;;;;;1.50;1.40;;;;;;;;;;5052456;28;20428;-66
2023/03/10 09:18:57;;;;;;;3.42;3.13;;;;;;;;;;5053185;28;20048;-65
2023/03/10 09:21:25;;;;;;;2.55;2.17;;;;;;;;;;5053272;28;20051;-66
2023/03/10 09:23:52;;;;;;;1.73;1.60;;;;;;;;;;5052851;28;20500;-66
2023/03/10 09:26:19;;;;;;;1.90;1.50;;;;;;;;;;5053127;28;20447;-65
2023/03/10 09:28:48;;;;;;;2.93;1.70;;;;;;;;;;5053332;28;20520;-65
2023/03/10 09:31:19;;;;;;;1.30;1.10;;;;;;;;;;5052822;28;20135;-65
2023/03/10 09:33:45;;;;;;;1.45;1.20;;;;;;;;;;5053772;28;20390;-65
2023/03/10 09:36:13;;;;;;;;;;;;;;;;;;5053931;28;20477;-65
2023/03/10 09:38:40;;;;;;;1.20;0.80;;;;;;;;;;5053554;28;19925;-66
2023/03/10 09:41:25;;;;;;;2.70;1.93;;;;;;;;;;5052998;28;20148;-65
2023/03/10 09:44:01;;;;;;;0.90;0.90;;;;;;;;;;5052966;28;20053;-65
2023/03/10 09:46:54;;;;;;;1.10;0.82;;;;;;;;;;5053430;28;20053;-65
2023/03/10 09:49:29;;;;;;;1.38;0.80;;;;;;;;;;5045054;28;20048;-65
2023/03/10 09:51:56;;;;;;;0.57;0.57;;;;;;;;;;5042245;28;20059;-65
2023/03/10 09:54:39;;;;;;;0.90;0.80;;;;;;;;;;5050336;28;20045;-65
2023/03/10 09:57:14;;;;;;;0.60;0.52;;;;;;;;;;5053573;28;20045;-65
2023/03/10 09:59:42;;;;;;;1.02;0.60;;;;;;;;;;5053432;28;20045;-65
2023/03/10 10:02:15;;;;;;;1.17;0.85;;;;;;;;;;5053706;28;20061;-65
2023/03/10 10:04:42;;;;;;;0.57;0.55;;;;;;;;;;5053509;28;20512;-65
2023/03/10 10:07:18;;;;;;;0.63;0.60;;;;;;;;;;5053241;28;20061;-65
2023/03/10 10:09:52;;;;;;;0.73;0.73;;;;;;;;;;5052979;28;20796;-65
2023/03/10 10:12:22;;;;;;;0.85;0.80;;;;;;;;;;5052790;28;20505;-65
2023/03/10 10:14:56;;;;;;;1.15;0.70;;;;;;;;;;5052966;28;20060;-65
2023/03/10 10:17:46;;;;;;;0.73;0.70;;;;;;;;;;5051319;28;20044;-65
2023/03/10 10:20:32;;;;;;;0.95;0.90;;;;;;;;;;5053352;28;20088;-65
2023/03/10 10:22:58;;;;;;;1.20;1.20;;;;;;;;;;5052832;28;20132;-65
2023/03/10 10:25:29;;;;;;;1.08;0.80;;;;;;;;;;5052856;28;20128;-65
2023/03/10 10:27:57;;;;;;;1.00;1.00;;;;;;;;;;5052888;28;20124;-65
2023/03/10 10:30:23;;;;;;;;;;;;;;;;;;5036931;28;20405;-66
2023/03/10 10:32:58;;;;;;;1.13;1.02;;;;;;;;;;5036035;28;19924;-65
2023/03/10 10:35:27;;;;;;;0.90;0.90;;;;;;;;;;5052422;28;20041;-66
2023/03/10 10:38:00;;;;;;;0.90;0.80;;;;;;;;;;5052452;28;20070;-65
2023/03/10 10:40:28;;;;;;;0.90;0.90;;;;;;;;;;5051534;28;20492;-66
2023/03/10 10:42:55;;;;;;;0.90;0.90;;;;;;;;;;5051446;28;20322;-65
2023/03/10 10:45:24;;;;;;;1.52;1.42;;;;;;;;;;5051625;28;20043;-65
2023/03/10 10:47:50;;;;;;;1.10;1.10;;;;;;;;;;5051691;28;20136;-65
2023/03/10 10:50:19;;;;;;;0.82;0.82;;;;;;;;;;5052169;28;20059;-66
2023/03/10 10:52:48;;;;;;;1.70;1.60;;;;;;;;;;5052193;28;20052;-65
2023/03/10 10:55:26;;;;;;;6.35;5.63;;;;;;;;;;5052082;28;20076;-65
2023/03/10 10:57:54;;;;;;;2.88;2.67;;;;;;;;;;5052068;28;20084;-65
2023/03/10 11:00:25;;;;;;;2.47;1.67;;;;;;;;;;5052274;28;20052;-65
2023/03/10 11:02:52;;;;;;;1.88;1.77;;;;;;;;;;5052013;28;20049;-66
2023/03/10 11:05:23;;;;;;;1.52;1.42;;;;;;;;;;5051942;28;20129;-65
2023/03/10 11:07:51;;;;;;;0.80;0.80;;;;;;;;;;5052043;28;20076;-65
2023/03/10 11:10:18;;;;;;;0.77;0.77;;;;;;;;;;5051819;28;20067;-65
2023/03/10 11:12:45;;;;;;;;;;;;;;;;;;5052304;28;20045;-65
2023/03/10 11:15:16;;;;;;;0.85;0.70;;;;;;;;;;5037808;28;20007;-65
2023/03/10 11:17:46;;;;;;;1.67;1.13;;;;;;;;;;5049662;28;20404;-65
2023/03/10 11:20:23;;;;;;;1.70;1.60;;;;;;;;;;5052254;28;20045;-65
2023/03/10 11:23:05;;;;;;;1.05;0.95;;;;;;;;;;5051682;28;20040;-65
2023/03/10 11:25:37;;;;;;;0.75;0.70;;;;;;;;;;5051820;28;20057;-65
2023/03/10 11:28:12;;;;;;;1.63;1.08;;;;;;;;;;5051799;28;20056;-66
2023/03/10 11:30:42;;;;;;;3.17;1.63;;;;;;;;;;5051568;28;20051;-66
2023/03/10 11:33:13;;;;;;;1.90;1.80;;;;;;;;;;5051437;28;20084;-66
2023/03/10 11:35:44;;;;;;;1.98;1.05;;;;;;;;;;5051489;28;20044;-66
2023/03/10 11:38:21;;;;;;;1.40;1.30;;;;;;;;;;5051856;28;20079;-65
2023/03/10 11:40:53;;;;;;;2.47;1.65;;;;;;;;;;5051399;28;20049;-65
2023/03/10 11:43:38;;;;;;;2.38;2.17;;;;;;;;;;5051668;28;20127;-65
2023/03/10 11:46:23;;;;;;;2.60;2.08;;;;;;;;;;5051203;28;20492;-66
2023/03/10 11:48:56;;;;;;;5.20;4.82;;;;;;;;;;5050915;28;20463;-66
2023/03/10 11:51:26;;;;;;;3.38;1.83;;;;;;;;;;5051282;28;20079;-66
2023/03/10 11:53:55;;;;;;;2.40;2.20;;;;;;;;;;5051036;28;20087;-65
2023/03/10 11:56:22;;;;;;;1.17;1.17;;;;;;;;;;5051052;28;20063;-65
2023/03/10 11:58:49;;;;;;;2.92;1.20;;;;;;;;;;5051035;28;20098;-66
2023/03/10 12:01:44;;;;;;;0.80;0.80;;;;;;;;;;5051054;28;20546;-66
2023/03/10 12:04:16;;;;;;;1.10;1.00;;;;;;;;;;5046220;28;20060;-65
2023/03/10 12:06:43;;;;;;;0.82;0.80;;;;;;;;;;5051031;28;20484;-65
2023/03/10 12:09:19;;;;;;;0.80;0.80;;;;;;;;;;5051102;28;20479;-64
2023/03/10 12:11:46;;;;;;;0.80;0.80;;;;;;;;;;5051100;28;20286;-66
2023/03/10 12:14:13;;;;;;;0.80;0.73;;;;;;;;;;5050764;28;20052;-67
2023/03/10 12:16:40;;;;;;;0.90;0.90;;;;;;;;;;5048476;28;20048;-65
2023/03/10 12:19:07;;;;;;;0.63;0.60;;;;;;;;;;5050800;28;20124;-66
2023/03/10 12:21:33;;;;;;;1.08;0.50;;;;;;;;;;5051171;28;20048;-66
2023/03/10 12:24:01;;;;;;;0.80;0.80;;;;;;;;;;5034764;28;20519;-66
2023/03/10 12:26:36;;;;;;;1.00;1.00;;;;;;;;;;5050909;28;20053;-66
2023/03/10 12:29:14;;;;;;;0.90;0.70;;;;;;;;;;5050706;28;20099;-66
2023/03/10 12:31:41;;;;;;;0.60;0.60;;;;;;;;;;5050894;28;20515;-66
2023/03/10 12:34:12;;;;;;;1.00;0.95;;;;;;;;;;5050847;28;20049;-66
2023/03/10 12:36:40;;;;;;;1.48;1.38;;;;;;;;;;5050901;28;20408;-66
2023/03/10 12:39:30;;;;;;;2.13;1.30;;;;;;;;;;5050638;28;20568;-67
2023/03/10 12:41:57;;;;;;;0.52;0.50;;;;;;;;;;5050666;28;20048;-67
2023/03/10 12:44:43;;;;;;;0.52;0.40;;;;;;;;;;5049997;28;20049;-66
2023/03/10 12:47:14;;;;;;;1.40;1.30;;;;;;;;;;5050161;28;20057;-67
2023/03/10 12:49:40;;;;;;;2.38;2.10;;;;;;;;;;5050563;28;20055;-66
2023/03/10 12:52:13;;;;;;;2.72;2.53;;;;;;;;;;5050072;28;20522;-66
2023/03/10 12:54:58;;;;;;;2.50;2.30;;;;;;;;;;5049395;28;20419;-66
2023/03/10 12:57:43;;;;;;;3.15;2.85;;;;;;;;;;5050711;28;20048;-66
2023/03/10 13:00:23;;;;;;;2.95;2.75;;;;;;;;;;5050807;28;20045;-66
2023/03/10 13:02:53;;;;;;;2.83;2.38;;;;;;;;;;5050686;28;20072;-66
2023/03/10 13:05:26;;;;;;;4.63;4.00;;;;;;;;;;5049567;28;20049;-66
2023/03/10 13:07:55;;;;;;;0.90;0.90;;;;;;;;;;5049949;28;20057;-66
2023/03/10 13:10:23;;;;;;;4.03;3.25;;;;;;;;;;5050538;28;20143;-66
2023/03/10 13:12:51;;;;;;;1.30;1.02;;;;;;;;;;5050445;28;20135;-66
2023/03/10 13:15:29;;;;;;;2.90;2.70;;;;;;;;;;5048927;28;20045;-67
2023/03/10 13:18:15;;;;;;;2.58;0.88;;;;;;;;;;5048186;28;20144;-67
2023/03/10 13:20:42;;;;;;;0.68;0.68;;;;;;;;;;5050450;28;20048;-67
2023/03/10 13:23:16;;;;;;;1.00;0.40;;;;;;;;;;5050483;28;20068;-67
2023/03/10 13:25:55;;;;;;;3.05;2.08;;;;;;;;;;5050186;28;20045;-66
2023/03/10 13:28:26;;;;;;;6.88;6.38;;;;;;;;;;5053076;28;20136;-66
2023/03/10 13:31:28;;;;;;;2.67;2.58;;;;;;;;;;5052966;28;20045;-67
2023/03/10 13:33:55;;;;;;;0.88;0.60;;;;;;;;;;5026637;28;20049;-67
2023/03/10 13:36:31;;;;;;;1.00;1.00;;;;;;;;;;5027753;28;20054;-67
2023/03/10 13:38:58;;;;;;;0.73;0.73;;;;;;;;;;5043351;28;20485;-67
2023/03/10 13:41:24;;;;;;;0.77;0.60;;;;;;;;;;5053508;28;20051;-67
2023/03/10 13:43:52;;;;;;;1.30;0.60;;;;;;;;;;5053638;28;20037;-67
2023/03/10 13:46:21;;;;;;;0.95;0.80;;;;;;;;;;5053506;28;20045;-67
2023/03/10 13:48:48;;;;;;;0.57;0.52;;;;;;;;;;5053922;28;20044;-67
2023/03/10 13:51:14;;;;;;;;;;;;;;;;;;5051333;28;20106;-67
2023/03/10 13:53:41;;;;;;;0.80;0.73;;;;;;;;;;5052863;28;19921;-67
2023/03/10 13:56:13;;;;;;;0.82;0.50;;;;;;;;;;5053492;28;20045;-67
2023/03/10 13:58:39;;;;;;;1.25;0.60;;;;;;;;;;5053563;28;20041;-67
2023/03/10 14:01:06;;;;;;;4.82;3.33;;;;;;;;;;5053331;28;20055;-67
2023/03/10 14:03:34;;;;;;;4.22;3.38;;;;;;;;;;5053081;28;20463;-68
2023/03/10 14:06:10;;;;;;;1.20;1.10;;;;;;;;;;5053461;28;20099;-67
2023/03/10 14:08:37;;;;;;;1.20;1.20;;;;;;;;;;5052960;28;20051;-67
2023/03/10 14:11:21;;;;;;;1.50;1.40;;;;;;;;;;5053005;28;20507;-67
2023/03/10 14:13:48;;;;;;;2.50;1.50;;;;;;;;;;5052269;28;20500;-67
2023/03/10 14:16:14;;;;;;;1.25;1.15;;;;;;;;;;5023370;28;20053;-68
2023/03/10 14:18:41;;;;;;;2.03;1.33;;;;;;;;;;5053241;28;20052;-67
2023/03/10 14:21:26;;;;;;;1.77;1.50;;;;;;;;;;5052495;28;20289;-67
2023/03/10 14:23:55;;;;;;;1.20;1.08;;;;;;;;;;5052871;28;20408;-68
2023/03/10 14:26:22;;;;;;;2.35;0.95;;;;;;;;;;5052643;28;20087;-67
2023/03/10 14:28:48;;;;;;;1.33;0.93;;;;;;;;;;5052956;28;20047;-66
2023/03/10 14:31:22;;;;;;;3.53;1.00;;;;;;;;;;5052776;28;20286;-66
2023/03/10 14:33:49;;;;;;;1.35;0.82;;;;;;;;;;5052205;28;20041;-66
2023/03/10 14:36:15;;;;;;;1.65;0.80;;;;;;;;;;5046513;28;20529;-67
2023/03/10 14:38:45;;;;;;;1.43;0.60;;;;;;;;;;5048960;28;20049;-67
2023/03/10 14:41:12;;;;;;;1.77;0.80;;;;;;;;;;5051799;28;20041;-66
2023/03/10 14:43:40;;;;;;;2.75;2.17;;;;;;;;;;5051821;28;20149;-67
2023/03/10 14:46:06;;;;;;;3.97;3.67;;;;;;;;;;5051699;28;20079;-67
2023/03/10 14:48:34;;;;;;;6.45;5.85;;;;;;;;;;5051848;28;20053;-66
2023/03/10 14:51:01;;;;;;;15.15;11.02;;;;;;;;;;5051377;28;20131;-66